Time;durP1;ratioP1;P1;durP2;ratioP2;P2;SDS_P1;SDS_P2;PMS_P1;PMS_P2;Temp;Humidity;BMP_temperature;BMP_pressure;BME280_temperature;BME280_humidity;BME280_pressure;Samples;Min_cycle;Max_cycle;Signal;HPM_P1;HPM_P2
2023/08/25 00:01:47;;;;;;;17.80;9.90;;;;;;;-128.00;-1.00;-1.00;105450;1251;1004339;-80
2023/08/25 00:04:14;;;;;;;16.40;8.90;;;;;;;-128.00;-1.00;-1.00;105551;1251;1003913;-80
2023/08/25 00:06:40;;;;;;;14.20;9.00;;;;;;;-128.00;-1.00;-1.00;105564;1251;1004736;-80
2023/08/25 00:09:06;;;;;;;11.50;8.60;;;;;;;-128.00;-1.00;-1.00;105570;1251;1004613;-80
2023/08/25 00:11:33;;;;;;;13.60;8.60;;;;;;;-128.00;-1.00;-1.00;105536;1251;1005033;-80
2023/08/25 00:14:00;;;;;;;18.80;9.30;;;;;;;-128.00;-1.00;-1.00;105578;1251;1004667;-80
2023/08/25 00:16:26;;;;;;;12.60;8.00;;;;;;;-128.00;-1.00;-1.00;105574;1251;1004058;-80
2023/08/25 00:18:53;;;;;;;13.70;7.50;;;;;;;-128.00;-1.00;-1.00;105533;1251;1003788;-79
2023/08/25 00:21:19;;;;;;;10.90;8.60;;;;;;;-128.00;-1.00;-1.00;105569;1251;1003841;-79
2023/08/25 00:23:46;;;;;;;11.90;7.80;;;;;;;-128.00;-1.00;-1.00;105610;1251;1004945;-79
2023/08/25 00:26:12;;;;;;;13.80;9.00;;;;;;;-128.00;-1.00;-1.00;105542;1251;1005031;-79
2023/08/25 00:28:39;;;;;;;13.40;9.00;;;;;;;-128.00;-1.00;-1.00;105556;1251;1003719;-79
2023/08/25 00:31:06;;;;;;;11.50;8.20;;;;;;;-128.00;-1.00;-1.00;105537;1251;1003893;-79
2023/08/25 00:33:32;;;;;;;15.10;10.10;;;;;;;-128.00;-1.00;-1.00;105584;1251;1004998;-80
2023/08/25 00:35:58;;;;;;;13.30;9.40;;;;;;;-128.00;-1.00;-1.00;105558;1251;1004132;-80
2023/08/25 00:38:28;;;;;;;16.60;9.90;;;;;;;-128.00;-1.00;-1.00;105554;1251;1003946;-80
2023/08/25 00:40:55;;;;;;;10.20;8.30;;;;;;;-128.00;-1.00;-1.00;105513;1251;1059282;-80
2023/08/25 00:43:21;;;;;;;11.60;8.80;;;;;;;-128.00;-1.00;-1.00;105572;1251;1005108;-80
2023/08/25 00:45:48;;;;;;;12.70;8.50;;;;;;;-128.00;-1.00;-1.00;105584;1251;1004499;-80
2023/08/25 00:48:14;;;;;;;12.70;8.80;;;;;;;-128.00;-1.00;-1.00;105603;1251;1005644;-80
2023/08/25 00:50:41;;;;;;;13.50;8.20;;;;;;;-128.00;-1.00;-1.00;105559;1251;1004467;-79
2023/08/25 00:53:07;;;;;;;14.60;8.70;;;;;;;-128.00;-1.00;-1.00;105463;1251;1004135;-79
2023/08/25 00:55:34;;;;;;;10.20;8.00;;;;;;;-128.00;-1.00;-1.00;105380;1251;1003764;-80
2023/08/25 00:58:02;;;;;;;14.50;9.10;;;;;;;-128.00;-1.00;-1.00;105531;1251;1004463;-76
2023/08/25 01:00:29;;;;;;;16.10;9.30;;;;;;;-128.00;-1.00;-1.00;105574;1256;1061932;-80
2023/08/25 01:02:56;;;;;;;12.90;7.70;;;;;;;-128.00;-1.00;-1.00;105680;1251;1004668;-80
2023/08/25 01:05:23;;;;;;;12.30;7.60;;;;;;;-128.00;-1.00;-1.00;105438;1251;1003548;-80
2023/08/25 01:07:49;;;;;;;11.60;7.60;;;;;;;-128.00;-1.00;-1.00;105588;1251;1003993;-80
2023/08/25 01:10:16;;;;;;;12.20;7.80;;;;;;;-128.00;-1.00;-1.00;105545;1251;1003982;-81
2023/08/25 01:12:51;;;;;;;11.30;7.10;;;;;;;-128.00;-1.00;-1.00;105563;1251;1003800;-80
2023/08/25 01:15:22;;;;;;;11.60;7.90;;;;;;;-128.00;-1.00;-1.00;105565;1251;1056696;-81
2023/08/25 01:17:57;;;;;;;11.40;7.30;;;;;;;-128.00;-1.00;-1.00;105600;1251;1059133;-80
2023/08/25 01:20:24;;;;;;;13.00;8.20;;;;;;;-128.00;-1.00;-1.00;105555;1251;1047013;-80
2023/08/25 01:22:53;;;;;;;12.80;8.00;;;;;;;-128.00;-1.00;-1.00;105587;1251;1004651;-80
2023/08/25 01:25:29;;;;;;;13.50;9.10;;;;;;;-128.00;-1.00;-1.00;105571;1251;1005888;-80
2023/08/25 01:27:59;;;;;;;22.80;9.20;;;;;;;-128.00;-1.00;-1.00;105589;1251;1058032;-80
2023/08/25 01:30:27;;;;;;;14.80;8.50;;;;;;;-128.00;-1.00;-1.00;105563;1251;1060714;-80
2023/08/25 01:32:53;;;;;;;10.10;7.10;;;;;;;-128.00;-1.00;-1.00;105560;1251;1004509;-80
2023/08/25 01:35:25;;;;;;;14.30;8.10;;;;;;;-128.00;-1.00;-1.00;105562;1251;1004495;-79
2023/08/25 01:38:20;;;;;;;12.40;7.80;;;;;;;-128.00;-1.00;-1.00;105541;1251;1061334;-80
2023/08/25 01:40:59;;;;;;;11.70;8.20;;;;;;;-128.00;-1.00;-1.00;105336;1251;1058105;-79
2023/08/25 01:43:27;;;;;;;15.40;8.50;;;;;;;-128.00;-1.00;-1.00;105476;1253;1059090;-79
2023/08/25 01:45:54;;;;;;;11.90;9.10;;;;;;;-128.00;-1.00;-1.00;105573;1251;1003870;-80
2023/08/25 01:48:20;;;;;;;13.40;8.80;;;;;;;-128.00;-1.00;-1.00;105477;1253;1004029;-80
2023/08/25 01:50:47;;;;;;;11.40;8.00;;;;;;;-128.00;-1.00;-1.00;105584;1251;1004020;-80
2023/08/25 01:53:13;;;;;;;10.80;8.20;;;;;;;-128.00;-1.00;-1.00;105470;1254;1004339;-79
2023/08/25 01:55:40;;;;;;;11.80;7.50;;;;;;;-128.00;-1.00;-1.00;105483;1251;1004429;-80
2023/08/25 01:58:06;;;;;;;11.10;7.70;;;;;;;-128.00;-1.00;-1.00;105577;1251;1005026;-79
2023/08/25 02:00:33;;;;;;;11.70;8.40;;;;;;;-128.00;-1.00;-1.00;105581;1251;1003729;-80
2023/08/25 02:02:59;;;;;;;13.20;7.60;;;;;;;-128.00;-1.00;-1.00;105544;1251;1005144;-80
2023/08/25 02:05:26;;;;;;;15.50;8.70;;;;;;;-128.00;-1.00;-1.00;105538;1251;1004509;-80
2023/08/25 02:07:53;;;;;;;14.00;8.30;;;;;;;-128.00;-1.00;-1.00;105561;1251;1004054;-81
2023/08/25 02:10:20;;;;;;;10.90;7.10;;;;;;;-128.00;-1.00;-1.00;105557;1251;1004251;-79
2023/08/25 02:12:46;;;;;;;14.80;8.00;;;;;;;-128.00;-1.00;-1.00;105576;1251;1005039;-80
2023/08/25 02:15:13;;;;;;;12.20;8.90;;;;;;;-128.00;-1.00;-1.00;105574;1251;1003660;-80
2023/08/25 02:17:40;;;;;;;13.50;8.20;;;;;;;-128.00;-1.00;-1.00;105562;1251;1003972;-81
2023/08/25 02:20:07;;;;;;;10.40;7.00;;;;;;;-128.00;-1.00;-1.00;105500;1251;1004303;-80
2023/08/25 02:22:34;;;;;;;10.00;7.60;;;;;;;-128.00;-1.00;-1.00;105570;1251;1004167;-80
2023/08/25 02:25:00;;;;;;;10.30;7.30;;;;;;;-128.00;-1.00;-1.00;105581;1251;1005369;-81
2023/08/25 02:27:27;;;;;;;11.80;8.00;;;;;;;-128.00;-1.00;-1.00;105573;1251;1004528;-80
2023/08/25 02:29:53;;;;;;;12.10;7.50;;;;;;;-128.00;-1.00;-1.00;105578;1251;1004750;-80
2023/08/25 02:32:20;;;;;;;16.60;8.20;;;;;;;-128.00;-1.00;-1.00;105570;1251;1004229;-80
2023/08/25 02:34:46;;;;;;;12.60;8.60;;;;;;;-128.00;-1.00;-1.00;105574;1251;1004180;-80
2023/08/25 02:37:13;;;;;;;12.50;8.60;;;;;;;-128.00;-1.00;-1.00;105574;1251;1004250;-81
2023/08/25 02:39:39;;;;;;;11.30;7.90;;;;;;;-128.00;-1.00;-1.00;105465;1251;1004570;-80
2023/08/25 02:42:06;;;;;;;10.70;8.00;;;;;;;-128.00;-1.00;-1.00;105577;1251;1003652;-80
2023/08/25 02:44:32;;;;;;;11.50;8.30;;;;;;;-128.00;-1.00;-1.00;105532;1251;1003969;-80
2023/08/25 02:46:59;;;;;;;9.80;8.70;;;;;;;-128.00;-1.00;-1.00;105583;1251;1004518;-80
2023/08/25 02:49:25;;;;;;;15.60;8.50;;;;;;;-128.00;-1.00;-1.00;105556;1251;1003795;-80
2023/08/25 02:51:52;;;;;;;12.10;9.00;;;;;;;-128.00;-1.00;-1.00;105568;1251;1005801;-79
2023/08/25 02:54:18;;;;;;;10.50;7.90;;;;;;;-128.00;-1.00;-1.00;105567;1251;1004485;-80
2023/08/25 02:56:45;;;;;;;14.30;8.80;;;;;;;-128.00;-1.00;-1.00;105577;1251;1004237;-80
2023/08/25 02:59:12;;;;;;;13.10;8.40;;;;;;;-128.00;-1.00;-1.00;105585;1251;1005274;-80
2023/08/25 03:01:38;;;;;;;17.30;9.20;;;;;;;-128.00;-1.00;-1.00;105595;1251;1004444;-80
2023/08/25 03:04:05;;;;;;;14.30;8.60;;;;;;;-128.00;-1.00;-1.00;105484;1251;1003516;-80
2023/08/25 03:06:32;;;;;;;11.60;8.50;;;;;;;-128.00;-1.00;-1.00;105607;1251;1004592;-79
2023/08/25 03:08:58;;;;;;;9.30;6.80;;;;;;;-128.00;-1.00;-1.00;105545;1251;1004355;-80
2023/08/25 03:11:25;;;;;;;15.30;8.80;;;;;;;-128.00;-1.00;-1.00;105562;1251;1003607;-79
2023/08/25 03:13:51;;;;;;;12.50;9.20;;;;;;;-128.00;-1.00;-1.00;105576;1251;1003667;-80
2023/08/25 03:16:17;;;;;;;11.10;7.70;;;;;;;-128.00;-1.00;-1.00;105580;1251;1004386;-80
2023/08/25 03:18:44;;;;;;;12.50;8.10;;;;;;;-128.00;-1.00;-1.00;105538;1253;1004465;-80
2023/08/25 03:21:10;;;;;;;15.20;9.10;;;;;;;-128.00;-1.00;-1.00;105537;1251;1003462;-81
2023/08/25 03:23:37;;;;;;;13.60;8.70;;;;;;;-128.00;-1.00;-1.00;105552;1251;1004447;-79
2023/08/25 03:26:03;;;;;;;12.30;8.90;;;;;;;-128.00;-1.00;-1.00;105574;1251;1005079;-79
2023/08/25 03:28:30;;;;;;;16.60;9.00;;;;;;;-128.00;-1.00;-1.00;105584;1251;1004400;-80
2023/08/25 03:30:56;;;;;;;12.20;8.90;;;;;;;-128.00;-1.00;-1.00;105567;1251;1004684;-79
2023/08/25 03:33:23;;;;;;;13.50;9.70;;;;;;;-128.00;-1.00;-1.00;105588;1251;1004413;-80
2023/08/25 03:35:50;;;;;;;11.90;7.70;;;;;;;-128.00;-1.00;-1.00;105543;1251;1004847;-80
2023/08/25 03:38:16;;;;;;;22.70;16.40;;;;;;;-128.00;-1.00;-1.00;105606;1251;1003959;-79
2023/08/25 03:40:43;;;;;;;17.30;11.40;;;;;;;-128.00;-1.00;-1.00;105532;1251;1004829;-80
2023/08/25 03:43:09;;;;;;;15.90;9.80;;;;;;;-128.00;-1.00;-1.00;105536;1251;1004645;-79
2023/08/25 03:45:36;;;;;;;15.30;9.10;;;;;;;-128.00;-1.00;-1.00;105547;1251;1004364;-79
2023/08/25 03:48:03;;;;;;;15.10;9.40;;;;;;;-128.00;-1.00;-1.00;105571;1251;1004627;-79
2023/08/25 03:50:29;;;;;;;10.70;8.10;;;;;;;-128.00;-1.00;-1.00;105413;1253;1003895;-80
2023/08/25 03:52:56;;;;;;;15.90;9.00;;;;;;;-128.00;-1.00;-1.00;105566;1251;1003746;-79
2023/08/25 03:55:22;;;;;;;12.80;8.90;;;;;;;-128.00;-1.00;-1.00;105553;1251;1004523;-80
2023/08/25 03:57:49;;;;;;;11.20;8.30;;;;;;;-128.00;-1.00;-1.00;105583;1251;1004102;-80
2023/08/25 04:00:15;;;;;;;12.30;9.30;;;;;;;-128.00;-1.00;-1.00;105545;1256;1004472;-80
2023/08/25 04:02:42;;;;;;;17.40;8.80;;;;;;;-128.00;-1.00;-1.00;105561;1251;1004076;-80
2023/08/25 04:05:08;;;;;;;12.20;7.90;;;;;;;-128.00;-1.00;-1.00;105542;1251;1004209;-80
2023/08/25 04:07:35;;;;;;;12.50;8.10;;;;;;;-128.00;-1.00;-1.00;105507;1251;1004360;-78
2023/08/25 04:10:03;;;;;;;13.40;9.00;;;;;;;-128.00;-1.00;-1.00;105455;1251;1005152;-78
2023/08/25 04:12:29;;;;;;;12.10;9.00;;;;;;;-128.00;-1.00;-1.00;105542;1253;1004368;-79
2023/08/25 04:14:56;;;;;;;13.00;8.80;;;;;;;-128.00;-1.00;-1.00;105592;1251;1005505;-80
2023/08/25 04:17:22;;;;;;;13.30;9.20;;;;;;;-128.00;-1.00;-1.00;105578;1251;1003404;-79
2023/08/25 04:19:49;;;;;;;13.50;8.40;;;;;;;-128.00;-1.00;-1.00;105557;1251;1004088;-79
2023/08/25 04:22:15;;;;;;;13.80;8.10;;;;;;;-128.00;-1.00;-1.00;105569;1251;1004617;-80
2023/08/25 04:24:42;;;;;;;10.80;8.60;;;;;;;-128.00;-1.00;-1.00;105562;1251;1003521;-79
2023/08/25 04:27:08;;;;;;;12.10;8.50;;;;;;;-128.00;-1.00;-1.00;105579;1251;1003628;-79
2023/08/25 04:29:35;;;;;;;12.90;8.10;;;;;;;-128.00;-1.00;-1.00;105589;1251;1004631;-79
2023/08/25 04:32:01;;;;;;;14.10;9.40;;;;;;;-128.00;-1.00;-1.00;105356;1251;1004095;-79
2023/08/25 04:34:28;;;;;;;11.90;8.10;;;;;;;-128.00;-1.00;-1.00;105534;1251;1003956;-79
2023/08/25 04:36:54;;;;;;;12.40;8.40;;;;;;;-128.00;-1.00;-1.00;105518;1251;1004942;-79
2023/08/25 04:39:21;;;;;;;10.30;8.40;;;;;;;-128.00;-1.00;-1.00;105514;1251;1003893;-79
2023/08/25 04:41:47;;;;;;;14.20;8.30;;;;;;;-128.00;-1.00;-1.00;105495;1251;1004833;-79
2023/08/25 04:44:15;;;;;;;15.60;9.20;;;;;;;-128.00;-1.00;-1.00;105683;1251;1004622;-79
2023/08/25 04:46:41;;;;;;;17.00;9.40;;;;;;;-128.00;-1.00;-1.00;105774;1251;1005056;-79
2023/08/25 04:49:09;;;;;;;13.00;9.50;;;;;;;-128.00;-1.00;-1.00;105761;1251;1004343;-79
2023/08/25 04:51:36;;;;;;;17.90;8.50;;;;;;;-128.00;-1.00;-1.00;105759;1251;1003918;-79
2023/08/25 04:54:02;;;;;;;14.20;8.20;;;;;;;-128.00;-1.00;-1.00;105570;1251;1004587;-79
2023/08/25 04:56:30;;;;;;;15.00;9.20;;;;;;;-128.00;-1.00;-1.00;105508;1251;1003983;-79
2023/08/25 04:58:56;;;;;;;12.50;7.90;;;;;;;-128.00;-1.00;-1.00;105319;1253;1005048;-79
2023/08/25 05:01:23;;;;;;;12.60;8.00;;;;;;;-128.00;-1.00;-1.00;105510;1253;1004624;-79
2023/08/25 05:03:49;;;;;;;11.80;7.70;;;;;;;-128.00;-1.00;-1.00;105488;1253;1004099;-79
2023/08/25 05:06:16;;;;;;;12.60;8.90;;;;;;;-128.00;-1.00;-1.00;105511;1253;1004443;-79
2023/08/25 05:08:42;;;;;;;12.50;9.00;;;;;;;-128.00;-1.00;-1.00;105498;1251;1003683;-79
2023/08/25 05:11:09;;;;;;;9.20;7.40;;;;;;;-128.00;-1.00;-1.00;105517;1251;1004362;-79
2023/08/25 05:13:36;;;;;;;9.60;8.40;;;;;;;-128.00;-1.00;-1.00;105313;1253;1003591;-79
2023/08/25 05:16:03;;;;;;;11.80;7.90;;;;;;;-128.00;-1.00;-1.00;105441;1252;1004290;-79
2023/08/25 05:18:31;;;;;;;13.50;8.20;;;;;;;-128.00;-1.00;-1.00;105458;1252;1004102;-79
2023/08/25 05:20:59;;;;;;;13.50;7.90;;;;;;;-128.00;-1.00;-1.00;105618;1251;1005000;-79
2023/08/25 05:23:27;;;;;;;12.80;8.10;;;;;;;-128.00;-1.00;-1.00;105373;1252;1004015;-79
2023/08/25 05:25:53;;;;;;;10.60;8.20;;;;;;;-128.00;-1.00;-1.00;105432;1253;1003474;-79
2023/08/25 05:28:20;;;;;;;11.90;7.90;;;;;;;-128.00;-1.00;-1.00;105431;1253;1004619;-79
2023/08/25 05:30:48;;;;;;;11.00;8.00;;;;;;;-128.00;-1.00;-1.00;105413;1254;1004003;-79
2023/08/25 05:33:14;;;;;;;13.20;8.00;;;;;;;-128.00;-1.00;-1.00;105426;1253;1004615;-79
2023/08/25 05:35:41;;;;;;;10.50;7.50;;;;;;;-128.00;-1.00;-1.00;105475;1253;1004999;-79
2023/08/25 05:38:07;;;;;;;12.90;8.30;;;;;;;-128.00;-1.00;-1.00;105489;1253;1004057;-79
2023/08/25 05:40:34;;;;;;;10.30;6.70;;;;;;;-128.00;-1.00;-1.00;105410;1254;1003805;-79
2023/08/25 05:43:01;;;;;;;14.20;8.40;;;;;;;-128.00;-1.00;-1.00;105470;1253;1005234;-80
2023/08/25 05:45:27;;;;;;;13.70;8.30;;;;;;;-128.00;-1.00;-1.00;105327;1253;1004735;-79
2023/08/25 05:47:54;;;;;;;11.50;7.80;;;;;;;-128.00;-1.00;-1.00;105483;1253;1004585;-80
2023/08/25 05:50:20;;;;;;;12.10;7.10;;;;;;;-128.00;-1.00;-1.00;105448;1251;1004987;-79
2023/08/25 05:52:47;;;;;;;9.80;7.10;;;;;;;-128.00;-1.00;-1.00;105494;1252;1004897;-79
2023/08/25 05:55:15;;;;;;;9.50;7.50;;;;;;;-128.00;-1.00;-1.00;105448;1254;1004762;-80
2023/08/25 05:57:42;;;;;;;13.10;8.30;;;;;;;-128.00;-1.00;-1.00;105419;1251;1003937;-80
2023/08/25 06:00:08;;;;;;;10.60;7.60;;;;;;;-128.00;-1.00;-1.00;105517;1256;1004148;-80
2023/08/25 06:02:35;;;;;;;13.00;7.40;;;;;;;-128.00;-1.00;-1.00;105552;1251;1004134;-81
2023/08/25 06:29:55;;;;;;;11.50;7.60;;;;;;;-128.00;-1.00;-1.00;105492;1252;1058784;-80
2023/08/25 06:32:23;;;;;;;16.20;8.90;;;;;;;-128.00;-1.00;-1.00;105485;1254;1004166;-80
2023/08/25 06:34:51;;;;;;;8.80;7.40;;;;;;;-128.00;-1.00;-1.00;105436;1254;1005464;-80
2023/08/25 06:37:18;;;;;;;11.60;7.10;;;;;;;-128.00;-1.00;-1.00;105434;1253;1004460;-79
2023/08/25 06:39:46;;;;;;;9.40;7.20;;;;;;;-128.00;-1.00;-1.00;105398;1253;1004954;-80
2023/08/25 06:42:13;;;;;;;10.80;6.20;;;;;;;-128.00;-1.00;-1.00;105428;1253;1005085;-80
2023/08/25 06:44:40;;;;;;;12.50;7.00;;;;;;;-128.00;-1.00;-1.00;105419;1253;1004752;-80
2023/08/25 07:03:13;;;;;;;11.60;7.70;;;;;;;-128.00;-1.00;-1.00;105432;1254;1061392;-80
2023/08/25 07:05:40;;;;;;;11.90;7.80;;;;;;;-128.00;-1.00;-1.00;105301;1253;1004670;-80
2023/08/25 07:08:06;;;;;;;16.30;8.00;;;;;;;-128.00;-1.00;-1.00;105395;1253;1005165;-80
2023/08/25 07:10:34;;;;;;;8.60;7.30;;;;;;;-128.00;-1.00;-1.00;105390;1253;1004297;-80
2023/08/25 07:13:01;;;;;;;9.40;7.10;;;;;;;-128.00;-1.00;-1.00;105405;1253;1004098;-80
2023/08/25 07:15:27;;;;;;;10.90;7.60;;;;;;;-128.00;-1.00;-1.00;105420;1253;1003817;-80
2023/08/25 07:17:54;;;;;;;8.90;6.60;;;;;;;-128.00;-1.00;-1.00;105569;1253;1004114;-80
2023/08/25 07:20:20;;;;;;;11.40;7.00;;;;;;;-128.00;-1.00;-1.00;105530;1254;1004296;-80
2023/08/25 07:22:48;;;;;;;9.90;8.10;;;;;;;-128.00;-1.00;-1.00;105359;1254;1003937;-80
2023/08/25 07:25:14;;;;;;;10.50;7.30;;;;;;;-128.00;-1.00;-1.00;105408;1253;1005087;-81
2023/08/25 07:27:41;;;;;;;10.20;6.80;;;;;;;-128.00;-1.00;-1.00;105425;1253;1004730;-80
2023/08/25 07:30:07;;;;;;;8.40;6.70;;;;;;;-128.00;-1.00;-1.00;105481;1253;1004511;-81
2023/08/25 07:32:34;;;;;;;9.60;7.80;;;;;;;-128.00;-1.00;-1.00;105428;1254;1004010;-81
2023/08/25 07:35:00;;;;;;;16.70;8.90;;;;;;;-128.00;-1.00;-1.00;105342;1254;1004441;-80
2023/08/25 07:37:27;;;;;;;12.80;9.20;;;;;;;-128.00;-1.00;-1.00;105414;1253;1004601;-81
2023/08/25 07:39:54;;;;;;;13.20;8.50;;;;;;;-128.00;-1.00;-1.00;105386;1254;1004212;-81
2023/08/25 07:42:22;;;;;;;17.00;10.50;;;;;;;-128.00;-1.00;-1.00;105462;1253;1004200;-80
2023/08/25 07:44:49;;;;;;;15.60;10.70;;;;;;;-128.00;-1.00;-1.00;105441;1253;1004904;-80
2023/08/25 07:47:16;;;;;;;10.90;8.60;;;;;;;-128.00;-1.00;-1.00;105435;1253;1004748;-80
2023/08/25 07:49:43;;;;;;;12.90;10.20;;;;;;;-128.00;-1.00;-1.00;105321;1253;1004655;-80
2023/08/25 07:52:09;;;;;;;12.80;9.40;;;;;;;-128.00;-1.00;-1.00;105369;1254;1004670;-80
2023/08/25 07:54:37;;;;;;;9.60;7.40;;;;;;;-128.00;-1.00;-1.00;105422;1254;1004047;-79
2023/08/25 07:57:04;;;;;;;11.50;6.80;;;;;;;-128.00;-1.00;-1.00;105398;1253;1004921;-80
2023/08/25 07:59:31;;;;;;;10.70;6.80;;;;;;;-128.00;-1.00;-1.00;105384;1253;1004992;-81
2023/08/25 08:01:58;;;;;;;11.60;7.20;;;;;;;-128.00;-1.00;-1.00;105429;1253;1004114;-80
2023/08/25 08:04:25;;;;;;;18.50;11.10;;;;;;;-128.00;-1.00;-1.00;105233;1253;1004639;-80
2023/08/25 08:06:52;;;;;;;12.20;10.70;;;;;;;-128.00;-1.00;-1.00;105465;1253;1004577;-80
2023/08/25 08:09:18;;;;;;;11.80;7.90;;;;;;;-128.00;-1.00;-1.00;105419;1253;1004570;-80
2023/08/25 08:11:44;;;;;;;12.00;7.10;;;;;;;-128.00;-1.00;-1.00;105440;1253;1003945;-80
2023/08/25 08:14:11;;;;;;;9.80;8.20;;;;;;;-128.00;-1.00;-1.00;105451;1254;1004457;-80
2023/08/25 08:16:38;;;;;;;13.30;7.90;;;;;;;-128.00;-1.00;-1.00;105283;1253;1004071;-81
2023/08/25 08:19:05;;;;;;;13.70;8.40;;;;;;;-128.00;-1.00;-1.00;105438;1254;1004305;-80
2023/08/25 08:21:31;;;;;;;12.20;8.60;;;;;;;-128.00;-1.00;-1.00;105401;1255;1004636;-80
2023/08/25 08:23:58;;;;;;;14.20;8.40;;;;;;;-128.00;-1.00;-1.00;105332;1253;1003771;-81
2023/08/25 08:26:25;;;;;;;19.00;9.20;;;;;;;-128.00;-1.00;-1.00;105384;1253;1004280;-81
2023/08/25 08:28:52;;;;;;;11.20;8.70;;;;;;;-128.00;-1.00;-1.00;105455;1253;1003784;-80
2023/08/25 08:31:18;;;;;;;15.80;8.30;;;;;;;-128.00;-1.00;-1.00;105463;1254;1005126;-81
2023/08/25 08:33:47;;;;;;;14.90;9.10;;;;;;;-128.00;-1.00;-1.00;105361;1253;1004883;-81
2023/08/25 08:36:19;;;;;;;12.20;8.80;;;;;;;-128.00;-1.00;-1.00;105420;1253;1004854;-81
2023/08/25 08:38:46;;;;;;;17.20;10.20;;;;;;;-128.00;-1.00;-1.00;105474;1253;1047723;-81
2023/08/25 08:41:14;;;;;;;21.40;9.10;;;;;;;-128.00;-1.00;-1.00;105449;1253;1003994;-81
2023/08/25 08:43:42;;;;;;;13.70;8.60;;;;;;;-128.00;-1.00;-1.00;105402;1254;1057384;-81
2023/08/25 08:46:10;;;;;;;10.60;8.10;;;;;;;-128.00;-1.00;-1.00;105393;1253;1004192;-81
2023/08/25 08:48:36;;;;;;;17.90;8.70;;;;;;;-128.00;-1.00;-1.00;105245;1253;1004488;-80
2023/08/25 08:51:03;;;;;;;13.30;8.40;;;;;;;-128.00;-1.00;-1.00;105447;1253;1003751;-81
2023/08/25 08:53:30;;;;;;;16.40;10.10;;;;;;;-128.00;-1.00;-1.00;105260;1253;1004395;-80
2023/08/25 08:55:56;;;;;;;14.20;8.30;;;;;;;-128.00;-1.00;-1.00;105475;1253;1005000;-81
2023/08/25 08:58:23;;;;;;;14.40;7.40;;;;;;;-128.00;-1.00;-1.00;105431;1253;1004439;-80
2023/08/25 09:00:50;;;;;;;11.70;8.20;;;;;;;-128.00;-1.00;-1.00;105421;1253;1004231;-80
2023/08/25 09:03:18;;;;;;;13.50;7.40;;;;;;;-128.00;-1.00;-1.00;105258;1253;1004148;-80
2023/08/25 09:05:45;;;;;;;10.80;7.00;;;;;;;-128.00;-1.00;-1.00;105090;1256;1061908;-81
2023/08/25 09:08:12;;;;;;;12.10;7.10;;;;;;;-128.00;-1.00;-1.00;105214;1253;1004678;-81
2023/08/25 09:10:39;;;;;;;10.40;6.60;;;;;;;-128.00;-1.00;-1.00;105217;1253;1005401;-81
2023/08/25 09:13:05;;;;;;;7.90;6.20;;;;;;;-128.00;-1.00;-1.00;105376;1253;1004282;-81
2023/08/25 09:15:32;;;;;;;9.30;6.20;;;;;;;-128.00;-1.00;-1.00;105477;1253;1004295;-81
2023/08/25 09:18:06;;;;;;;10.60;5.80;;;;;;;-128.00;-1.00;-1.00;105438;1253;1003698;-81
2023/08/25 09:20:35;;;;;;;7.80;5.70;;;;;;;-128.00;-1.00;-1.00;105390;1256;1058513;-81
2023/08/25 09:23:02;;;;;;;7.70;6.50;;;;;;;-128.00;-1.00;-1.00;105351;1253;1059009;-81
2023/08/25 09:25:29;;;;;;;8.90;6.70;;;;;;;-128.00;-1.00;-1.00;105301;1253;1004496;-81
2023/08/25 09:27:57;;;;;;;10.40;6.30;;;;;;;-128.00;-1.00;-1.00;105422;1253;1003833;-81
2023/08/25 09:30:34;;;;;;;10.20;6.40;;;;;;;-128.00;-1.00;-1.00;105440;1253;1004278;-81
2023/08/25 09:33:06;;;;;;;7.20;5.80;;;;;;;-128.00;-1.00;-1.00;105400;1253;1059242;-81
2023/08/25 09:35:32;;;;;;;7.90;5.40;;;;;;;-128.00;-1.00;-1.00;105237;1253;1059247;-82
2023/08/25 09:37:59;;;;;;;12.50;6.00;;;;;;;-128.00;-1.00;-1.00;105566;1253;1004488;-82
2023/08/25 09:40:26;;;;;;;10.50;6.00;;;;;;;-128.00;-1.00;-1.00;105613;1253;1004750;-81
2023/08/25 09:42:56;;;;;;;20.20;6.40;;;;;;;-128.00;-1.00;-1.00;105376;1253;1003831;-81
2023/08/25 09:45:26;;;;;;;8.30;6.40;;;;;;;-128.00;-1.00;-1.00;105264;1253;1058076;-82
2023/08/25 09:47:53;;;;;;;7.50;5.50;;;;;;;-128.00;-1.00;-1.00;105443;1253;1059462;-82
2023/08/25 09:50:19;;;;;;;7.50;5.60;;;;;;;-128.00;-1.00;-1.00;105438;1253;1004107;-82
2023/08/25 09:52:47;;;;;;;7.60;5.80;;;;;;;-128.00;-1.00;-1.00;105277;1253;1003865;-82
2023/08/25 09:55:13;;;;;;;7.90;5.10;;;;;;;-128.00;-1.00;-1.00;105289;1253;1004478;-82
2023/08/25 09:57:43;;;;;;;8.40;5.10;;;;;;;-128.00;-1.00;-1.00;105377;1253;1003776;-82
2023/08/25 10:00:10;;;;;;;8.70;5.60;;;;;;;-128.00;-1.00;-1.00;105254;1256;1059109;-82
2023/08/25 10:02:37;;;;;;;6.70;6.00;;;;;;;-128.00;-1.00;-1.00;105317;1253;1003996;-83
2023/08/25 10:05:04;;;;;;;5.60;4.90;;;;;;;-128.00;-1.00;-1.00;105271;1254;1004102;-82
2023/08/25 10:07:31;;;;;;;6.70;5.90;;;;;;;-128.00;-1.00;-1.00;105212;1253;1004702;-82
2023/08/25 10:09:57;;;;;;;11.60;5.80;;;;;;;-128.00;-1.00;-1.00;104263;1254;1416498;-81
2023/08/25 10:12:24;;;;;;;8.30;5.90;;;;;;;-128.00;-1.00;-1.00;105299;1253;1004546;-81
2023/08/25 10:14:56;;;;;;;8.00;5.90;;;;;;;-128.00;-1.00;-1.00;105267;1253;1004313;-81
2023/08/25 10:17:24;;;;;;;9.30;6.00;;;;;;;-128.00;-1.00;-1.00;105417;1253;1047498;-81
2023/08/25 10:19:52;;;;;;;;;;;;;;;-128.00;-1.00;-1.00;105287;1254;1004507;-81
2023/08/25 10:22:19;;;;;;;8.80;6.40;;;;;;;-128.00;-1.00;-1.00;105292;1253;1004478;-81
2023/08/25 10:24:45;;;;;;;11.30;6.80;;;;;;;-128.00;-1.00;-1.00;105390;1253;1004191;-81
2023/08/25 10:27:12;;;;;;;8.30;5.70;;;;;;;-128.00;-1.00;-1.00;105435;1253;1004539;-83
2023/08/25 10:29:38;;;;;;;12.90;6.90;;;;;;;-128.00;-1.00;-1.00;105447;1254;1004501;-81
2023/08/25 10:32:05;;;;;;;9.90;6.00;;;;;;;-128.00;-1.00;-1.00;105432;1253;1004918;-82
2023/08/25 10:34:35;;;;;;;9.10;6.50;;;;;;;-128.00;-1.00;-1.00;105427;1253;1004935;-82
2023/08/25 10:37:12;;;;;;;11.00;6.50;;;;;;;-128.00;-1.00;-1.00;105464;1253;1059639;-81
2023/08/25 10:39:50;;;;;;;9.00;6.10;;;;;;;-128.00;-1.00;-1.00;105424;1253;1043973;-81
2023/08/25 10:42:27;;;;;;;11.40;7.30;;;;;;;-128.00;-1.00;-1.00;105394;1253;1046848;-81
2023/08/25 10:45:06;;;;;;;7.90;6.70;;;;;;;-128.00;-1.00;-1.00;105253;1254;1061359;-81
2023/08/25 10:47:32;;;;;;;10.00;6.50;;;;;;;-128.00;-1.00;-1.00;105401;1253;1058526;-81
2023/08/25 10:50:00;;;;;;;10.70;6.60;;;;;;;-128.00;-1.00;-1.00;105336;1253;1005082;-81
2023/08/25 10:52:27;;;;;;;10.50;7.50;;;;;;;-128.00;-1.00;-1.00;105317;1253;1004021;-81
2023/08/25 10:54:53;;;;;;;11.70;7.30;;;;;;;-128.00;-1.00;-1.00;105324;1254;1005156;-81
2023/08/25 10:57:26;;;;;;;8.70;6.80;;;;;;;-128.00;-1.00;-1.00;105321;1253;1005086;-81
2023/08/25 10:59:56;;;;;;;9.60;6.50;;;;;;;-128.00;-1.00;-1.00;105425;1253;1058402;-81
2023/08/25 11:02:37;;;;;;;11.40;6.80;;;;;;;-128.00;-1.00;-1.00;105456;1253;1059610;-81
2023/08/25 11:05:26;;;;;;;10.80;7.20;;;;;;;-128.00;-1.00;-1.00;105469;1257;1045772;-81
2023/08/25 11:07:56;;;;;;;13.10;7.00;;;;;;;-128.00;-1.00;-1.00;105491;1253;1046908;-81
2023/08/25 11:10:23;;;;;;;8.90;6.30;;;;;;;-128.00;-1.00;-1.00;105488;1254;1062515;-81
2023/08/25 11:12:53;;;;;;;12.80;7.50;;;;;;;-128.00;-1.00;-1.00;105401;1253;1005045;-82
2023/08/25 11:15:23;;;;;;;10.30;7.10;;;;;;;-128.00;-1.00;-1.00;105304;1254;1059669;-81
2023/08/25 11:17:49;;;;;;;13.10;6.70;;;;;;;-128.00;-1.00;-1.00;105359;1253;1043405;-81
2023/08/25 11:20:16;;;;;;;11.30;6.50;;;;;;;-128.00;-1.00;-1.00;105395;1253;1004491;-81
2023/08/25 11:22:57;;;;;;;10.00;7.20;;;;;;;-128.00;-1.00;-1.00;105429;1253;1004975;-81
2023/08/25 11:25:27;;;;;;;10.90;6.90;;;;;;;-128.00;-1.00;-1.00;105336;1253;1058752;-81
2023/08/25 11:27:54;;;;;;;11.00;7.00;;;;;;;-128.00;-1.00;-1.00;105287;1254;1059515;-81
2023/08/25 11:30:21;;;;;;;19.00;6.70;;;;;;;-128.00;-1.00;-1.00;105317;1254;1004323;-81
2023/08/25 11:32:48;;;;;;;13.20;6.70;;;;;;;-128.00;-1.00;-1.00;105406;1253;1005502;-81
2023/08/25 11:35:14;;;;;;;9.40;7.00;;;;;;;-128.00;-1.00;-1.00;105458;1253;1004122;-81
2023/08/25 11:37:41;;;;;;;12.00;6.80;;;;;;;-128.00;-1.00;-1.00;105420;1253;1004832;-81
2023/08/25 11:40:13;;;;;;;9.50;6.50;;;;;;;-128.00;-1.00;-1.00;105477;1253;1003740;-81
2023/08/25 11:42:40;;;;;;;15.70;7.00;;;;;;;-128.00;-1.00;-1.00;105396;1254;1043906;-81
2023/08/25 11:45:08;;;;;;;8.70;6.40;;;;;;;-128.00;-1.00;-1.00;105338;1255;1004874;-81
2023/08/25 11:47:35;;;;;;;9.00;6.60;;;;;;;-128.00;-1.00;-1.00;105402;1253;1004853;-81
2023/08/25 11:50:04;;;;;;;8.80;7.00;;;;;;;-128.00;-1.00;-1.00;105363;1255;1003532;-81
2023/08/25 11:52:34;;;;;;;11.80;6.60;;;;;;;-128.00;-1.00;-1.00;105378;1253;1062414;-81
2023/08/25 11:55:00;;;;;;;9.30;7.00;;;;;;;-128.00;-1.00;-1.00;105250;1254;1044883;-81